createdAt,value
2022-08-10T00:01:52.669Z,83.62
2022-08-10T00:04:24.133Z,83.68
2022-08-10T00:06:52.673Z,84.23
2022-08-10T00:09:19.535Z,84.74
2022-08-10T00:11:46.001Z,84.59
2022-08-10T00:14:12.427Z,84.97
2022-08-10T00:16:38.961Z,85.33
2022-08-10T00:19:05.478Z,85.57
2022-08-10T00:21:31.949Z,85.92
2022-08-10T00:23:58.408Z,86.42
2022-08-10T00:26:24.847Z,86.78
2022-08-10T00:28:52.698Z,87.00
2022-08-10T00:31:19.524Z,87.34
2022-08-10T00:33:45.977Z,87.98
2022-08-10T00:36:12.502Z,88.60
2022-08-10T00:38:38.928Z,89.04
2022-08-10T00:41:05.622Z,89.27
2022-08-10T00:43:32.312Z,89.77
2022-08-10T00:46:00.407Z,90.32
2022-08-10T00:48:29.114Z,90.87
2022-08-10T00:50:56.024Z,91.25
2022-08-10T00:53:22.528Z,91.22
2022-08-10T00:57:14.301Z,92.27
2022-08-10T00:58:38.340Z,92.77
2022-08-10T01:01:06.124Z,93.23
2022-08-10T01:04:36.656Z,93.74
2022-08-10T01:06:23.776Z,93.96
2022-08-10T01:08:57.602Z,94.89
2022-08-10T01:12:37.247Z,97.02
2022-08-10T01:14:37.493Z,96.17
2022-08-10T01:17:15.078Z,96.05
2022-08-10T01:19:53.360Z,95.92
2022-08-10T01:22:37.708Z,97.69
2022-08-10T01:25:28.924Z,97.46
2022-08-10T01:28:14.074Z,96.44
2022-08-10T01:30:42.991Z,96.64
2022-08-10T01:33:18.931Z,97.01
2022-08-10T01:36:12.987Z,98.17
2022-08-10T01:38:45.719Z,97.30
2022-08-10T01:41:26.588Z,97.85
2022-08-10T01:43:59.885Z,97.86
2022-08-10T01:46:32.081Z,98.09
2022-08-10T01:49:00.509Z,98.33
2022-08-10T01:51:32.668Z,98.83
2022-08-10T01:54:02.968Z,98.57
2022-08-10T01:56:33.801Z,99.07
2022-08-10T01:59:11.875Z,99.59
2022-08-10T02:01:42.484Z,99.57
2022-08-10T02:04:12.113Z,100.00
2022-08-10T02:06:45.234Z,100.00
2022-08-10T02:09:15.623Z,100.00
2022-08-10T02:12:06.647Z,100.00
2022-08-10T02:14:34.656Z,100.00
2022-08-10T02:17:08.031Z,100.00
2022-08-10T02:19:38.465Z,100.00
2022-08-10T02:22:15.417Z,100.00
2022-08-10T02:24:57.518Z,100.00
2022-08-10T02:27:26.829Z,100.00
2022-08-10T02:29:54.782Z,100.00
2022-08-10T02:32:36.154Z,100.00
2022-08-10T02:35:08.225Z,100.00
2022-08-10T02:37:43.465Z,100.00
2022-08-10T02:45:02.893Z,100.00
2022-08-10T02:45:18.929Z,100.00
2022-08-10T02:46:13.089Z,100.00
2022-08-10T02:48:45.088Z,100.00
2022-08-10T02:51:18.528Z,100.00
2022-08-10T02:53:54.956Z,100.00
2022-08-10T02:56:37.005Z,100.00
2022-08-10T02:59:21.853Z,100.00
2022-08-10T03:01:52.759Z,100.00
2022-08-10T03:04:55.345Z,100.00
2022-08-10T03:07:20.040Z,100.00
2022-08-10T03:10:08.416Z,100.00
2022-08-10T03:12:42.406Z,100.00
2022-08-10T03:15:11.089Z,100.00
2022-08-10T03:17:58.192Z,100.00
2022-08-10T03:20:37.446Z,100.00
2022-08-10T03:23:11.157Z,100.00
2022-08-10T03:25:37.923Z,100.00
2022-08-10T03:28:05.525Z,100.00
2022-08-10T03:30:34.385Z,100.00
2022-08-10T03:33:04.017Z,100.00
2022-08-10T03:35:30.761Z,100.00
2022-08-10T03:37:59.486Z,100.00
2022-08-10T03:40:35.860Z,100.00
2022-08-10T03:43:19.122Z,100.00
2022-08-10T03:45:55.817Z,100.00
2022-08-10T03:48:33.132Z,100.00
2022-08-10T03:51:13.472Z,100.00
2022-08-10T03:54:03.088Z,100.00
2022-08-10T03:56:31.859Z,100.00
2022-08-10T03:58:59.953Z,100.00
2022-08-10T04:02:43.270Z,100.00
2022-08-10T04:04:17.839Z,100.00
2022-08-10T04:06:47.298Z,100.00
2022-08-10T04:09:17.761Z,100.00
2022-08-10T04:11:44.614Z,100.00
2022-08-10T04:14:38.521Z,100.00
2022-08-10T04:16:57.728Z,100.00
2022-08-10T04:19:27.024Z,100.00
2022-08-10T04:22:07.178Z,100.00
2022-08-10T04:24:36.576Z,100.00
2022-08-10T04:27:03.426Z,100.00
2022-08-10T04:29:30.254Z,100.00
2022-08-10T04:31:56.874Z,100.00
2022-08-10T04:34:27.271Z,100.00
2022-08-10T04:36:59.573Z,100.00
2022-08-10T04:39:26.241Z,100.00
2022-08-10T04:41:52.917Z,100.00
2022-08-10T04:44:19.384Z,100.00
2022-08-10T04:46:56.079Z,100.00
2022-08-10T04:49:54.228Z,100.00
2022-08-10T04:52:10.612Z,100.00
2022-08-10T04:54:37.072Z,100.00
2022-08-10T04:57:03.893Z,100.00
2022-08-10T04:59:30.302Z,100.00
2022-08-10T05:02:22.435Z,100.00
2022-08-10T05:04:43.117Z,100.00
2022-08-10T05:07:16.709Z,100.00
2022-08-10T05:10:00.986Z,100.00
2022-08-10T05:12:36.397Z,100.00
2022-08-10T05:15:08.088Z,100.00
2022-08-10T05:17:36.066Z,100.00
2022-08-10T05:20:07.778Z,100.00
2022-08-10T05:22:40.741Z,100.00
2022-08-10T05:25:17.564Z,100.00
2022-08-10T05:27:44.954Z,100.00
2022-08-10T05:30:16.400Z,100.00
2022-08-10T05:32:56.361Z,100.00
2022-08-10T05:35:24.998Z,100.00
2022-08-10T05:38:12.263Z,100.00
2022-08-10T05:40:41.079Z,100.00
2022-08-10T05:43:14.803Z,100.00
2022-08-10T05:46:16.903Z,100.00
2022-08-10T05:48:58.148Z,100.00
2022-08-10T05:51:17.591Z,100.00
2022-08-10T05:54:01.790Z,100.00
2022-08-10T05:56:54.061Z,100.00
2022-08-10T06:00:10.923Z,100.00
2022-08-10T06:02:33.206Z,100.00
2022-08-10T06:04:56.994Z,100.00
2022-08-10T06:07:27.311Z,100.00
2022-08-10T06:09:59.317Z,100.00
2022-08-10T06:12:30.086Z,100.00
2022-08-10T06:15:05.982Z,100.00
2022-08-10T06:17:38.291Z,100.00
2022-08-10T06:20:05.706Z,100.00
2022-08-10T06:22:33.262Z,100.00
2022-08-10T06:25:37.765Z,100.00
2022-08-10T06:27:49.282Z,100.00
2022-08-10T06:30:20.036Z,100.00
2022-08-10T06:32:50.434Z,100.00
2022-08-10T06:35:18.120Z,100.00
2022-08-10T06:37:50.972Z,100.00
2022-08-10T06:40:19.797Z,100.00
2022-08-10T06:42:51.034Z,100.00
2022-08-10T06:45:22.386Z,100.00
2022-08-10T06:47:59.578Z,100.00
2022-08-10T06:50:58.121Z,100.00
2022-08-10T06:53:54.019Z,100.00
2022-08-10T06:56:37.668Z,100.00
2022-08-10T06:59:26.022Z,100.00
2022-08-10T07:02:03.599Z,100.00
2022-08-10T07:04:33.735Z,100.00
2022-08-10T07:07:05.512Z,100.00
2022-08-10T07:09:36.114Z,100.00
2022-08-10T07:12:08.211Z,99.32
2022-08-10T07:14:43.464Z,97.40
2022-08-10T07:17:15.427Z,96.99
2022-08-10T07:19:50.354Z,96.17
2022-08-10T07:23:01.206Z,94.43
2022-08-10T07:25:12.014Z,93.35
2022-08-10T07:27:58.553Z,93.84
2022-08-10T07:30:28.794Z,91.72
2022-08-10T07:32:56.595Z,91.25
2022-08-10T07:35:26.365Z,90.07
2022-08-10T07:37:54.823Z,88.86
2022-08-10T07:40:22.288Z,88.00
2022-08-10T07:42:53.691Z,84.85
2022-08-10T07:45:20.448Z,85.04
2022-08-10T07:47:55.068Z,83.27
2022-08-10T07:50:24.421Z,84.49
2022-08-10T07:52:53.395Z,83.59
2022-08-10T07:56:02.059Z,82.93
2022-08-10T07:58:09.056Z,82.54
2022-08-10T08:00:37.113Z,81.55
2022-08-10T08:03:07.163Z,80.99
2022-08-10T08:05:57.264Z,80.12
2022-08-10T08:08:22.534Z,78.29
2022-08-10T08:10:50.507Z,74.49
2022-08-10T08:13:20.447Z,73.88
2022-08-10T08:16:20.899Z,72.85
2022-08-10T08:18:37.044Z,71.13
2022-08-10T08:24:02.356Z,70.12
2022-08-10T08:24:05.778Z,68.67
2022-08-10T08:26:40.969Z,67.87
2022-08-10T08:29:10.732Z,66.55
2022-08-10T08:31:59.150Z,65.78
2022-08-10T08:34:25.396Z,64.24
2022-08-10T08:36:56.083Z,62.66
2022-08-10T08:39:25.743Z,62.04
2022-08-10T08:42:03.489Z,59.27
2022-08-10T08:44:50.142Z,56.02
2022-08-10T08:48:04.088Z,56.71
2022-08-10T08:50:47.178Z,55.17
2022-08-10T08:54:01.667Z,54.52
2022-08-10T08:56:34.458Z,52.47
2022-08-10T08:59:11.349Z,52.94
2022-08-10T09:02:21.021Z,52.13
2022-08-10T09:05:19.336Z,51.47
2022-08-10T09:08:17.578Z,51.14
2022-08-10T09:11:00.534Z,51.26
2022-08-10T09:13:48.268Z,52.43
2022-08-10T09:16:36.344Z,50.82
2022-08-10T09:19:11.758Z,47.88
2022-08-10T09:22:17.514Z,47.68
2022-08-10T09:24:52.591Z,47.79
2022-08-10T09:27:23.728Z,48.17
2022-08-10T09:30:06.235Z,45.53
2022-08-10T09:36:14.298Z,46.29
2022-08-10T09:36:21.928Z,44.43
2022-08-10T09:38:34.755Z,41.11
2022-08-10T09:41:19.809Z,38.88
2022-08-10T09:43:50.889Z,39.24
2022-08-10T09:46:39.373Z,38.23
2022-08-10T09:49:12.130Z,38.21
2022-08-10T09:51:59.950Z,38.25
2022-08-10T09:54:54.181Z,37.62
2022-08-10T09:57:44.576Z,37.25
2022-08-10T10:00:16.255Z,38.29
2022-08-10T10:03:03.079Z,37.17
2022-08-10T10:05:51.190Z,37.03
2022-08-10T10:08:22.033Z,36.13
2022-08-10T10:11:00.089Z,36.12
2022-08-10T10:14:03.801Z,35.47
2022-08-10T10:17:09.153Z,35.36
2022-08-10T10:19:48.476Z,33.28
2022-08-10T10:22:25.979Z,34.06
2022-08-10T10:25:19.562Z,33.64
2022-08-10T10:27:59.939Z,32.58
2022-08-10T10:30:36.994Z,31.01
2022-08-10T10:33:14.415Z,30.54
2022-08-10T10:35:56.994Z,30.71
2022-08-10T10:38:28.580Z,31.71
2022-08-10T10:41:16.082Z,30.82
2022-08-10T10:43:56.112Z,31.29
2022-08-10T10:46:51.958Z,31.07
2022-08-10T10:49:24.605Z,30.98
2022-08-10T10:52:04.717Z,30.60
2022-08-10T10:54:53.381Z,28.63
2022-08-10T10:58:00.065Z,29.21
2022-08-10T11:00:18.316Z,29.79
2022-08-10T11:03:06.946Z,28.41
2022-08-10T11:05:33.363Z,30.16
2022-08-10T11:08:15.570Z,28.01
2022-08-10T11:11:02.947Z,27.55
2022-08-10T11:14:27.174Z,27.77
2022-08-10T11:16:43.337Z,28.18
2022-08-10T11:20:00.346Z,28.03
2022-08-10T11:22:49.679Z,27.89
2022-08-10T11:25:36.289Z,27.82
2022-08-10T11:28:16.554Z,27.74
2022-08-10T11:30:56.132Z,27.92
2022-08-10T11:36:36.867Z,27.62
2022-08-10T11:39:16.105Z,26.88
2022-08-10T11:42:10.196Z,27.01
2022-08-10T11:44:31.610Z,27.07
2022-08-10T11:47:15.261Z,25.67
2022-08-10T11:49:55.966Z,25.72
2022-08-10T11:52:59.723Z,25.22
2022-08-10T11:55:30.585Z,25.69
2022-08-10T11:58:25.540Z,25.84
2022-08-10T12:00:55.941Z,26.16
2022-08-10T12:03:24.166Z,26.09
2022-08-10T12:05:55.410Z,25.50
2022-08-10T12:10:03.672Z,24.82
2022-08-10T12:11:22.516Z,24.82
2022-08-10T12:14:22.790Z,24.03
2022-08-10T12:16:59.796Z,23.24
2022-08-10T12:19:58.761Z,23.73
2022-08-10T12:22:33.106Z,22.94
2022-08-10T12:25:03.699Z,23.64
2022-08-10T12:27:40.055Z,23.32
2022-08-10T12:30:08.809Z,23.31
2022-08-10T12:33:02.068Z,21.63
2022-08-10T12:35:56.108Z,22.35
2022-08-10T12:38:44.691Z,22.01
2022-08-10T12:41:44.254Z,22.25
2022-08-10T12:44:42.331Z,21.94
2022-08-10T12:47:14.883Z,21.33
2022-08-10T12:50:23.925Z,21.89
2022-08-10T12:53:27.483Z,22.20
2022-08-10T12:55:55.422Z,22.12
2022-08-10T12:58:58.110Z,22.18
2022-08-10T13:01:18.588Z,22.36
2022-08-10T13:04:22.883Z,21.62
2022-08-10T13:06:43.456Z,22.17
2022-08-10T13:09:10.004Z,22.28
2022-08-10T13:12:36.106Z,21.84
2022-08-10T13:14:57.735Z,21.46
2022-08-10T13:17:38.849Z,21.61
2022-08-10T13:20:16.138Z,21.70
2022-08-10T13:22:43.638Z,21.54
2022-08-10T13:25:11.334Z,21.64
2022-08-10T13:28:00.736Z,21.06
2022-08-10T13:30:37.899Z,21.19
2022-08-10T13:33:07.204Z,21.36
2022-08-10T13:35:36.112Z,21.08
2022-08-10T13:38:04.776Z,20.61
2022-08-10T13:40:32.780Z,20.29
2022-08-10T13:43:02.472Z,20.22
2022-08-10T13:45:30.323Z,20.67
2022-08-10T13:48:16.830Z,20.33
2022-08-10T13:50:46.203Z,20.67
2022-08-10T13:53:15.690Z,20.74
2022-08-10T13:55:55.426Z,20.61
2022-08-10T13:58:32.172Z,20.72
2022-08-10T14:01:09.275Z,20.27
2022-08-10T14:03:39.732Z,19.96
2022-08-10T14:06:10.374Z,19.77
2022-08-10T14:08:38.101Z,20.19
2022-08-10T14:11:12.358Z,19.95
2022-08-10T14:13:50.605Z,19.93
2022-08-10T14:16:18.576Z,19.77
2022-08-10T14:18:47.324Z,20.25
2022-08-10T14:21:14.966Z,20.03
2022-08-10T14:23:52.437Z,20.10
2022-08-10T14:26:30.947Z,19.82
2022-08-10T14:29:04.895Z,20.67
2022-08-10T14:31:34.162Z,20.19
2022-08-10T14:34:03.664Z,19.89
2022-08-10T14:36:44.249Z,19.51
2022-08-10T14:39:22.273Z,19.32
2022-08-10T14:42:02.765Z,19.78
2022-08-10T14:44:45.043Z,20.11
2022-08-10T14:47:51.527Z,19.87
2022-08-10T14:50:03.322Z,19.76
2022-08-10T14:52:38.458Z,20.16
2022-08-10T14:55:06.408Z,20.14
2022-08-10T14:58:19.292Z,19.59
2022-08-10T15:00:42.917Z,19.35
2022-08-10T15:04:01.768Z,19.51
2022-08-10T15:06:06.969Z,19.81
2022-08-10T15:08:36.883Z,20.05
2022-08-10T15:11:04.465Z,19.72
2022-08-10T15:13:34.569Z,19.61
2022-08-10T15:16:13.680Z,19.04
2022-08-10T15:18:57.650Z,18.50
2022-08-10T15:21:35.676Z,18.64
2022-08-10T15:24:15.977Z,18.29
2022-08-10T15:26:57.775Z,18.67
2022-08-10T15:29:26.483Z,19.08
2022-08-10T15:32:16.815Z,18.64
2022-08-10T15:35:04.336Z,18.78
2022-08-10T15:37:47.232Z,18.62
2022-08-10T15:40:26.700Z,18.40
2022-08-10T15:43:24.504Z,18.37
2022-08-10T15:46:09.719Z,18.71
2022-08-10T15:48:47.989Z,18.59
2022-08-10T15:51:33.808Z,18.08
2022-08-10T15:54:17.015Z,18.20
2022-08-10T15:56:58.925Z,18.07
2022-08-10T15:59:43.270Z,17.65
2022-08-10T16:02:17.198Z,17.97
2022-08-10T16:04:52.212Z,17.93
2022-08-10T16:07:49.239Z,17.83
2022-08-10T16:10:28.290Z,17.31
2022-08-10T16:13:50.059Z,17.70
2022-08-10T16:15:59.937Z,18.15
2022-08-10T16:18:28.289Z,18.00
2022-08-10T16:20:58.918Z,18.56
2022-08-10T16:23:29.966Z,18.50
2022-08-10T16:26:05.089Z,18.34
2022-08-10T16:28:59.615Z,17.85
2022-08-10T16:31:29.144Z,18.35
2022-08-10T16:33:59.732Z,18.10
2022-08-10T16:36:40.237Z,17.73
2022-08-10T16:39:08.165Z,18.30
2022-08-10T16:42:03.638Z,18.71
2022-08-10T16:44:39.096Z,18.98
2022-08-10T16:47:07.484Z,18.99
2022-08-10T16:49:39.988Z,19.29
2022-08-10T16:52:07.854Z,19.39
2022-08-10T16:54:36.784Z,19.62
2022-08-10T16:57:05.624Z,19.89
2022-08-10T16:59:38.253Z,20.24
2022-08-10T17:02:06.603Z,20.43
2022-08-10T17:04:36.330Z,20.55
2022-08-10T17:07:14.345Z,20.77
2022-08-10T17:09:47.106Z,21.08
2022-08-10T17:12:16.816Z,21.09
2022-08-10T17:14:44.169Z,21.62
2022-08-10T17:17:31.012Z,22.25
2022-08-10T17:20:30.450Z,22.09
2022-08-10T17:22:54.796Z,22.07
2022-08-10T17:25:25.537Z,22.00
2022-08-10T17:28:13.272Z,22.38
2022-08-10T17:31:23.865Z,22.51
2022-08-10T17:34:02.179Z,22.69
2022-08-10T17:36:33.394Z,22.85
2022-08-10T17:39:00.621Z,22.61
2022-08-10T17:41:31.245Z,22.78
2022-08-10T17:44:03.539Z,22.78
2022-08-10T17:46:38.564Z,22.63
2022-08-10T17:49:08.227Z,22.91
2022-08-10T17:51:36.870Z,22.77
2022-08-10T17:54:08.892Z,22.99
2022-08-10T17:56:37.736Z,22.99
2022-08-10T17:59:17.548Z,23.13
2022-08-10T18:01:58.847Z,23.62
2022-08-10T18:04:35.522Z,23.80
2022-08-10T18:07:09.878Z,23.71
2022-08-10T18:09:42.923Z,23.45
2022-08-10T18:12:25.788Z,23.99
2022-08-10T18:15:04.438Z,23.74
2022-08-10T18:17:38.161Z,23.72
2022-08-10T18:20:07.817Z,24.36
2022-08-10T18:22:42.908Z,24.49
2022-08-10T18:25:17.232Z,25.07
2022-08-10T18:28:01.604Z,25.06
2022-08-10T18:30:36.535Z,25.42
2022-08-10T18:33:09.167Z,25.57
2022-08-10T18:35:37.271Z,25.85
2022-08-10T18:38:04.851Z,25.88
2022-08-10T18:40:36.381Z,25.99
2022-08-10T18:44:04.583Z,26.11
2022-08-10T18:45:56.531Z,26.52
2022-08-10T18:48:27.821Z,26.82
2022-08-10T18:50:57.441Z,27.20
2022-08-10T18:53:35.844Z,27.88
2022-08-10T18:56:22.256Z,28.42
2022-08-10T18:59:06.286Z,28.17
2022-08-10T19:01:35.514Z,28.45
2022-08-10T19:04:39.746Z,29.08
2022-08-10T19:07:44.953Z,29.60
2022-08-10T19:10:33.832Z,30.14
2022-08-10T19:13:28.949Z,30.48
2022-08-10T19:16:16.946Z,31.04
2022-08-10T19:19:21.782Z,31.21
2022-08-10T19:22:14.929Z,31.53
2022-08-10T19:24:44.862Z,31.02
2022-08-10T19:27:34.553Z,31.55
2022-08-10T19:30:13.361Z,31.99
2022-08-10T19:33:14.256Z,32.21
2022-08-10T19:36:05.394Z,32.43
2022-08-10T19:39:03.414Z,33.14
2022-08-10T19:41:41.916Z,32.21
2022-08-10T19:44:21.673Z,32.79
2022-08-10T19:47:05.539Z,33.45
2022-08-10T19:49:39.999Z,32.56
2022-08-10T19:52:41.496Z,33.51
2022-08-10T19:55:30.693Z,33.35
2022-08-10T19:58:22.253Z,33.46
2022-08-10T20:01:02.193Z,33.47
2022-08-10T20:03:41.545Z,33.64
2022-08-10T20:06:18.704Z,33.77
2022-08-10T20:09:29.274Z,33.97
2022-08-10T20:12:08.271Z,34.03
2022-08-10T20:14:56.621Z,34.25
2022-08-10T20:17:51.257Z,34.69
2022-08-10T20:20:31.024Z,33.85
2022-08-10T20:23:16.537Z,34.21
2022-08-10T20:25:56.551Z,34.13
2022-08-10T20:28:35.788Z,34.39
2022-08-10T20:31:11.597Z,34.44
2022-08-10T20:34:01.657Z,34.72
2022-08-10T20:36:33.623Z,35.03
2022-08-10T20:39:13.320Z,35.49
2022-08-10T20:41:59.670Z,35.13
2022-08-10T20:44:47.017Z,35.65
2022-08-10T20:47:54.854Z,35.64
2022-08-10T20:50:25.132Z,34.97
2022-08-10T20:52:52.935Z,35.24
2022-08-10T20:55:22.268Z,35.18
2022-08-10T20:58:18.962Z,35.64
2022-08-10T21:00:52.513Z,35.86
2022-08-10T21:03:33.800Z,36.06
2022-08-10T21:06:14.338Z,36.01
2022-08-10T21:09:28.770Z,36.23
2022-08-10T21:12:06.944Z,36.14
2022-08-10T21:14:57.973Z,36.23
2022-08-10T21:17:31.804Z,36.06
2022-08-10T21:20:14.353Z,36.59
2022-08-10T21:22:48.313Z,36.49
2022-08-10T21:25:26.113Z,36.24
2022-08-10T21:28:25.151Z,37.26
2022-08-10T21:31:16.119Z,36.66
2022-08-10T21:34:12.446Z,37.29
2022-08-10T21:36:56.237Z,36.85
2022-08-10T21:39:44.112Z,37.36
2022-08-10T21:42:47.121Z,37.56
2022-08-10T21:45:59.173Z,37.77
2022-08-10T21:48:57.204Z,38.81
2022-08-10T21:52:04.217Z,39.59
2022-08-10T21:55:03.291Z,39.91
2022-08-10T21:58:09.366Z,40.85
2022-08-10T22:01:01.507Z,40.46
2022-08-10T22:03:47.171Z,40.71
2022-08-10T22:06:34.098Z,41.30
2022-08-10T22:09:26.430Z,42.09
2022-08-10T22:12:24.650Z,41.87
2022-08-10T22:16:05.401Z,42.46
2022-08-10T22:18:58.718Z,42.46
2022-08-10T22:22:26.904Z,44.87
2022-08-10T22:25:28.932Z,44.84
2022-08-10T22:28:17.549Z,44.02
2022-08-10T22:31:30.768Z,45.23
2022-08-10T22:34:38.834Z,47.05
2022-08-10T22:37:45.848Z,45.16
2022-08-10T22:40:42.301Z,46.80
2022-08-10T22:43:51.173Z,46.35
2022-08-10T22:46:40.519Z,46.19
2022-08-10T22:49:07.965Z,46.28
2022-08-10T22:51:43.525Z,47.32
2022-08-10T22:54:34.900Z,46.89
2022-08-10T22:57:21.162Z,47.30
2022-08-10T22:59:49.398Z,48.05
2022-08-10T23:02:26.268Z,49.09
2022-08-10T23:04:58.177Z,48.62
2022-08-10T23:07:28.443Z,49.07
2022-08-10T23:10:07.232Z,50.02
2022-08-10T23:12:47.441Z,50.21
2022-08-10T23:15:46.043Z,51.18
2022-08-10T23:18:36.656Z,50.00
2022-08-10T23:21:05.000Z,50.29
2022-08-10T23:23:38.322Z,51.16
2022-08-10T23:26:06.235Z,50.83
2022-08-10T23:28:38.780Z,50.97
2022-08-10T23:31:59.237Z,51.09
2022-08-10T23:34:13.514Z,51.93
2022-08-10T23:36:41.225Z,52.28
2022-08-10T23:39:26.578Z,52.89
2022-08-10T23:41:59.728Z,53.54
2022-08-10T23:44:51.724Z,56.93
2022-08-10T23:47:21.189Z,54.86
2022-08-10T23:49:54.765Z,56.00
2022-08-10T23:52:27.532Z,56.51
2022-08-10T23:55:00.864Z,56.52
2022-08-10T23:57:29.495Z,56.72
2022-08-10T23:59:59.857Z,57.37
